sensor_id;sensor_type;location;lat;lon;timestamp;temperature;humidity
23721;DHT22;42950;52.134;5.578;2023-02-27T00:01:06;1.00;99.90
23721;DHT22;42950;52.134;5.578;2023-02-27T00:03:32;0.90;99.90
23721;DHT22;42950;52.134;5.578;2023-02-27T00:05:57;0.70;99.90
23721;DHT22;42950;52.134;5.578;2023-02-27T00:08:23;0.70;99.90
23721;DHT22;42950;52.134;5.578;2023-02-27T00:10:50;0.60;99.90
23721;DHT22;42950;52.134;5.578;2023-02-27T00:13:17;0.50;99.90
23721;DHT22;42950;52.134;5.578;2023-02-27T00:15:47;0.50;99.90
23721;DHT22;42950;52.134;5.578;2023-02-27T00:18:13;0.50;99.90
23721;DHT22;42950;52.134;5.578;2023-02-27T00:20:39;0.50;99.90
23721;DHT22;42950;52.134;5.578;2023-02-27T00:23:07;0.50;99.90
23721;DHT22;42950;52.134;5.578;2023-02-27T00:25:34;0.50;99.90
23721;DHT22;42950;52.134;5.578;2023-02-27T00:28:00;0.60;99.90
23721;DHT22;42950;52.134;5.578;2023-02-27T00:30:26;0.60;99.90
23721;DHT22;42950;52.134;5.578;2023-02-27T00:32:53;0.60;99.90
23721;DHT22;42950;52.134;5.578;2023-02-27T00:35:19;0.60;99.90
23721;DHT22;42950;52.134;5.578;2023-02-27T00:37:45;0.60;99.90
23721;DHT22;42950;52.134;5.578;2023-02-27T00:40:11;0.60;99.90
23721;DHT22;42950;52.134;5.578;2023-02-27T00:42:37;0.60;99.90
23721;DHT22;42950;52.134;5.578;2023-02-27T00:45:04;0.60;99.90
23721;DHT22;42950;52.134;5.578;2023-02-27T00:47:32;0.50;99.90
23721;DHT22;42950;52.134;5.578;2023-02-27T00:49:57;0.50;99.90
23721;DHT22;42950;52.134;5.578;2023-02-27T00:52:23;0.40;99.90
23721;DHT22;42950;52.134;5.578;2023-02-27T00:54:50;0.40;99.90
23721;DHT22;42950;52.134;5.578;2023-02-27T00:57:15;0.40;99.90
23721;DHT22;42950;52.134;5.578;2023-02-27T00:59:41;0.40;99.90
23721;DHT22;42950;52.134;5.578;2023-02-27T01:02:07;0.30;99.90
23721;DHT22;42950;52.134;5.578;2023-02-27T01:04:33;0.30;99.90
23721;DHT22;42950;52.134;5.578;2023-02-27T01:06:58;0.30;99.90
23721;DHT22;42950;52.134;5.578;2023-02-27T01:09:24;0.20;99.90
23721;DHT22;42950;52.134;5.578;2023-02-27T01:11:50;0.20;99.90
23721;DHT22;42950;52.134;5.578;2023-02-27T01:14:17;0.10;99.90
23721;DHT22;42950;52.134;5.578;2023-02-27T01:16:42;0.10;99.90
23721;DHT22;42950;52.134;5.578;2023-02-27T01:19:08;0.20;99.90
23721;DHT22;42950;52.134;5.578;2023-02-27T01:21:34;0.20;99.90
23721;DHT22;42950;52.134;5.578;2023-02-27T01:24:00;0.10;99.90
23721;DHT22;42950;52.134;5.578;2023-02-27T01:26:30;0.00;99.90
23721;DHT22;42950;52.134;5.578;2023-02-27T01:28:55;0.10;99.90
23721;DHT22;42950;52.134;5.578;2023-02-27T01:31:22;0.00;99.90
23721;DHT22;42950;52.134;5.578;2023-02-27T01:33:47;0.00;99.90
23721;DHT22;42950;52.134;5.578;2023-02-27T01:36:14;0.00;99.90
23721;DHT22;42950;52.134;5.578;2023-02-27T01:38:40;0.00;99.90
23721;DHT22;42950;52.134;5.578;2023-02-27T01:41:06;0.00;99.90
23721;DHT22;42950;52.134;5.578;2023-02-27T01:43:33;0.00;99.90
23721;DHT22;42950;52.134;5.578;2023-02-27T01:45:58;-0.10;99.90
23721;DHT22;42950;52.134;5.578;2023-02-27T01:51:04;-0.10;99.90
23721;DHT22;42950;52.134;5.578;2023-02-27T01:53:34;-0.20;99.90
23721;DHT22;42950;52.134;5.578;2023-02-27T01:56:12;-0.20;99.90
23721;DHT22;42950;52.134;5.578;2023-02-27T01:58:39;-0.20;99.90
23721;DHT22;42950;52.134;5.578;2023-02-27T02:01:06;-0.20;99.90
23721;DHT22;42950;52.134;5.578;2023-02-27T02:04:09;-0.20;99.90
23721;DHT22;42950;52.134;5.578;2023-02-27T02:06:39;-0.10;99.90
23721;DHT22;42950;52.134;5.578;2023-02-27T02:09:07;-0.20;99.90
23721;DHT22;42950;52.134;5.578;2023-02-27T02:11:36;-0.30;99.90
23721;DHT22;42950;52.134;5.578;2023-02-27T02:14:03;-0.20;99.90
23721;DHT22;42950;52.134;5.578;2023-02-27T02:22:27;-0.20;99.90
23721;DHT22;42950;52.134;5.578;2023-02-27T02:28:18;-0.30;99.90
23721;DHT22;42950;52.134;5.578;2023-02-27T02:34:15;-0.30;99.90
23721;DHT22;42950;52.134;5.578;2023-02-27T02:37:04;-0.30;99.90
23721;DHT22;42950;52.134;5.578;2023-02-27T02:42:25;-0.30;99.90
23721;DHT22;42950;52.134;5.578;2023-02-27T02:47:48;-0.20;99.90
23721;DHT22;42950;52.134;5.578;2023-02-27T02:50:33;-0.30;99.90
23721;DHT22;42950;52.134;5.578;2023-02-27T02:55:49;-0.30;99.90
23721;DHT22;42950;52.134;5.578;2023-02-27T03:00:55;-0.50;99.90
23721;DHT22;42950;52.134;5.578;2023-02-27T03:03:33;-0.50;99.90
23721;DHT22;42950;52.134;5.578;2023-02-27T03:06:04;-0.40;99.90
23721;DHT22;42950;52.134;5.578;2023-02-27T03:08:36;-0.40;99.90
23721;DHT22;42950;52.134;5.578;2023-02-27T03:11:04;-0.40;99.90
23721;DHT22;42950;52.134;5.578;2023-02-27T03:13:47;-0.30;99.90
23721;DHT22;42950;52.134;5.578;2023-02-27T03:19:39;-0.30;99.90
23721;DHT22;42950;52.134;5.578;2023-02-27T03:22:04;-0.30;99.90
23721;DHT22;42950;52.134;5.578;2023-02-27T03:24:46;-0.30;99.90
23721;DHT22;42950;52.134;5.578;2023-02-27T03:27:15;-0.30;99.90
23721;DHT22;42950;52.134;5.578;2023-02-27T03:32:22;-0.30;99.90
23721;DHT22;42950;52.134;5.578;2023-02-27T03:34:50;-0.30;99.90
23721;DHT22;42950;52.134;5.578;2023-02-27T03:37:19;-0.20;99.90
23721;DHT22;42950;52.134;5.578;2023-02-27T03:42:44;-0.20;99.90
23721;DHT22;42950;52.134;5.578;2023-02-27T03:45:53;-0.20;99.90
23721;DHT22;42950;52.134;5.578;2023-02-27T03:48:16;-0.20;99.90
23721;DHT22;42950;52.134;5.578;2023-02-27T03:50:42;-0.20;99.90
23721;DHT22;42950;52.134;5.578;2023-02-27T03:53:31;-0.30;99.90
23721;DHT22;42950;52.134;5.578;2023-02-27T03:56:00;-0.30;99.90
23721;DHT22;42950;52.134;5.578;2023-02-27T03:58:27;-0.40;99.90
23721;DHT22;42950;52.134;5.578;2023-02-27T04:00:52;-0.40;99.90
23721;DHT22;42950;52.134;5.578;2023-02-27T04:03:18;-0.40;99.90
23721;DHT22;42950;52.134;5.578;2023-02-27T04:05:45;-0.40;99.90
23721;DHT22;42950;52.134;5.578;2023-02-27T04:08:19;-0.30;99.90
23721;DHT22;42950;52.134;5.578;2023-02-27T04:10:57;-0.30;99.90
23721;DHT22;42950;52.134;5.578;2023-02-27T04:13:45;-0.30;99.90
23721;DHT22;42950;52.134;5.578;2023-02-27T04:16:38;-0.30;99.90
23721;DHT22;42950;52.134;5.578;2023-02-27T04:19:17;-0.30;99.90
23721;DHT22;42950;52.134;5.578;2023-02-27T04:22:12;-0.30;99.90
23721;DHT22;42950;52.134;5.578;2023-02-27T04:24:57;-0.30;99.90
23721;DHT22;42950;52.134;5.578;2023-02-27T04:27:39;-0.30;99.90
23721;DHT22;42950;52.134;5.578;2023-02-27T04:32:51;-0.30;99.90
23721;DHT22;42950;52.134;5.578;2023-02-27T04:35:34;-0.30;99.90
23721;DHT22;42950;52.134;5.578;2023-02-27T04:38:34;-0.40;99.90
23721;DHT22;42950;52.134;5.578;2023-02-27T04:41:06;-0.40;99.90
23721;DHT22;42950;52.134;5.578;2023-02-27T04:43:36;-0.50;99.90
23721;DHT22;42950;52.134;5.578;2023-02-27T04:46:05;-0.50;99.90
23721;DHT22;42950;52.134;5.578;2023-02-27T04:48:36;-0.50;99.90
23721;DHT22;42950;52.134;5.578;2023-02-27T04:51:14;-0.50;99.90
23721;DHT22;42950;52.134;5.578;2023-02-27T04:54:03;-0.50;99.90
23721;DHT22;42950;52.134;5.578;2023-02-27T04:56:34;-0.50;99.90
23721;DHT22;42950;52.134;5.578;2023-02-27T04:59:09;-0.50;99.90
23721;DHT22;42950;52.134;5.578;2023-02-27T05:01:42;-0.60;99.90
23721;DHT22;42950;52.134;5.578;2023-02-27T05:04:12;-0.50;99.90
23721;DHT22;42950;52.134;5.578;2023-02-27T05:06:41;-0.60;99.90
23721;DHT22;42950;52.134;5.578;2023-02-27T05:12:13;-0.50;99.90
23721;DHT22;42950;52.134;5.578;2023-02-27T05:14:50;-0.60;99.90
23721;DHT22;42950;52.134;5.578;2023-02-27T05:17:30;-0.70;99.90
23721;DHT22;42950;52.134;5.578;2023-02-27T05:19:58;-0.70;99.90
23721;DHT22;42950;52.134;5.578;2023-02-27T05:22:46;-0.80;99.90
23721;DHT22;42950;52.134;5.578;2023-02-27T05:25:25;-0.80;99.90
23721;DHT22;42950;52.134;5.578;2023-02-27T05:27:58;-0.80;99.90
23721;DHT22;42950;52.134;5.578;2023-02-27T05:30:39;-0.80;99.90
23721;DHT22;42950;52.134;5.578;2023-02-27T05:33:16;-0.80;99.90
23721;DHT22;42950;52.134;5.578;2023-02-27T05:38:35;-0.80;99.90
23721;DHT22;42950;52.134;5.578;2023-02-27T05:41:07;-0.70;99.90
23721;DHT22;42950;52.134;5.578;2023-02-27T05:43:40;-0.70;99.90
23721;DHT22;42950;52.134;5.578;2023-02-27T05:46:16;-0.70;99.90
23721;DHT22;42950;52.134;5.578;2023-02-27T05:48:52;-0.70;99.90
23721;DHT22;42950;52.134;5.578;2023-02-27T05:51:20;-0.70;99.90
23721;DHT22;42950;52.134;5.578;2023-02-27T05:53:54;-0.80;99.90
23721;DHT22;42950;52.134;5.578;2023-02-27T05:56:23;-0.70;99.90
23721;DHT22;42950;52.134;5.578;2023-02-27T05:59:22;-0.70;99.90
23721;DHT22;42950;52.134;5.578;2023-02-27T06:01:51;-0.60;99.90
23721;DHT22;42950;52.134;5.578;2023-02-27T06:04:17;-0.60;99.90
23721;DHT22;42950;52.134;5.578;2023-02-27T06:06:43;-0.60;99.90
23721;DHT22;42950;52.134;5.578;2023-02-27T06:09:09;-0.60;99.90
23721;DHT22;42950;52.134;5.578;2023-02-27T06:11:35;-0.60;99.90
23721;DHT22;42950;52.134;5.578;2023-02-27T06:14:00;-0.60;99.90
23721;DHT22;42950;52.134;5.578;2023-02-27T06:16:26;-0.50;99.90
23721;DHT22;42950;52.134;5.578;2023-02-27T06:18:51;-0.50;99.90
23721;DHT22;42950;52.134;5.578;2023-02-27T06:21:17;-0.50;99.90
23721;DHT22;42950;52.134;5.578;2023-02-27T06:23:42;-0.50;99.90
23721;DHT22;42950;52.134;5.578;2023-02-27T06:26:08;-0.50;99.90
23721;DHT22;42950;52.134;5.578;2023-02-27T06:28:37;-0.60;99.90
23721;DHT22;42950;52.134;5.578;2023-02-27T06:31:03;-0.60;99.90
23721;DHT22;42950;52.134;5.578;2023-02-27T06:33:29;-0.60;99.90
23721;DHT22;42950;52.134;5.578;2023-02-27T06:35:54;-0.60;99.90
23721;DHT22;42950;52.134;5.578;2023-02-27T06:38:20;-0.70;99.90
23721;DHT22;42950;52.134;5.578;2023-02-27T06:40:46;-0.60;99.90
23721;DHT22;42950;52.134;5.578;2023-02-27T06:43:11;-0.60;99.90
23721;DHT22;42950;52.134;5.578;2023-02-27T06:45:37;-0.60;99.90
23721;DHT22;42950;52.134;5.578;2023-02-27T06:48:03;-0.60;99.90
23721;DHT22;42950;52.134;5.578;2023-02-27T06:50:29;-0.70;99.90
23721;DHT22;42950;52.134;5.578;2023-02-27T06:52:54;-0.70;99.90
23721;DHT22;42950;52.134;5.578;2023-02-27T06:55:20;-0.70;99.90
23721;DHT22;42950;52.134;5.578;2023-02-27T06:57:48;-0.70;99.90
23721;DHT22;42950;52.134;5.578;2023-02-27T07:00:14;-0.70;99.90
23721;DHT22;42950;52.134;5.578;2023-02-27T07:02:40;-0.70;99.90
23721;DHT22;42950;52.134;5.578;2023-02-27T07:05:07;-0.70;99.90
23721;DHT22;42950;52.134;5.578;2023-02-27T07:07:33;-0.70;99.90
23721;DHT22;42950;52.134;5.578;2023-02-27T07:09:59;-0.70;99.90
23721;DHT22;42950;52.134;5.578;2023-02-27T07:12:24;-0.70;99.90
23721;DHT22;42950;52.134;5.578;2023-02-27T07:14:50;-0.70;99.90
23721;DHT22;42950;52.134;5.578;2023-02-27T07:17:15;-0.70;99.90
23721;DHT22;42950;52.134;5.578;2023-02-27T07:19:41;-0.70;99.90
23721;DHT22;42950;52.134;5.578;2023-02-27T07:22:07;-0.70;99.90
23721;DHT22;42950;52.134;5.578;2023-02-27T07:24:34;-0.70;99.90
23721;DHT22;42950;52.134;5.578;2023-02-27T07:26:59;-0.70;99.90
23721;DHT22;42950;52.134;5.578;2023-02-27T07:29:25;-0.60;99.90
23721;DHT22;42950;52.134;5.578;2023-02-27T07:31:51;-0.60;99.90
23721;DHT22;42950;52.134;5.578;2023-02-27T07:34:16;-0.60;99.90
23721;DHT22;42950;52.134;5.578;2023-02-27T07:36:42;-0.60;99.90
23721;DHT22;42950;52.134;5.578;2023-02-27T07:39:08;-0.60;99.90
23721;DHT22;42950;52.134;5.578;2023-02-27T07:41:35;-0.60;99.90
23721;DHT22;42950;52.134;5.578;2023-02-27T07:44:00;-0.60;99.90
23721;DHT22;42950;52.134;5.578;2023-02-27T07:46:26;-0.60;99.90
23721;DHT22;42950;52.134;5.578;2023-02-27T07:48:52;-0.50;99.90
23721;DHT22;42950;52.134;5.578;2023-02-27T07:51:18;-0.50;99.90
23721;DHT22;42950;52.134;5.578;2023-02-27T07:53:44;-0.50;99.90
23721;DHT22;42950;52.134;5.578;2023-02-27T07:56:10;-0.50;99.90
23721;DHT22;42950;52.134;5.578;2023-02-27T07:58:35;-0.50;99.90
23721;DHT22;42950;52.134;5.578;2023-02-27T08:01:01;-0.40;99.90
23721;DHT22;42950;52.134;5.578;2023-02-27T08:03:26;-0.40;99.90
23721;DHT22;42950;52.134;5.578;2023-02-27T08:05:52;-0.40;99.90
23721;DHT22;42950;52.134;5.578;2023-02-27T08:08:17;-0.20;99.90
23721;DHT22;42950;52.134;5.578;2023-02-27T08:10:43;-0.20;99.90
23721;DHT22;42950;52.134;5.578;2023-02-27T08:13:08;-0.10;99.90
23721;DHT22;42950;52.134;5.578;2023-02-27T08:15:34;0.00;99.90
23721;DHT22;42950;52.134;5.578;2023-02-27T08:17:59;0.10;99.90
23721;DHT22;42950;52.134;5.578;2023-02-27T08:20:25;0.20;99.90
23721;DHT22;42950;52.134;5.578;2023-02-27T08:22:51;0.30;99.90
23721;DHT22;42950;52.134;5.578;2023-02-27T08:25:17;0.40;99.90
23721;DHT22;42950;52.134;5.578;2023-02-27T08:27:42;0.50;99.90
23721;DHT22;42950;52.134;5.578;2023-02-27T08:30:09;0.50;99.90
23721;DHT22;42950;52.134;5.578;2023-02-27T08:32:35;0.60;99.90
23721;DHT22;42950;52.134;5.578;2023-02-27T08:35:01;0.70;99.90
23721;DHT22;42950;52.134;5.578;2023-02-27T08:37:27;0.80;99.90
23721;DHT22;42950;52.134;5.578;2023-02-27T08:39:53;0.90;99.90
23721;DHT22;42950;52.134;5.578;2023-02-27T08:42:18;1.00;99.90
23721;DHT22;42950;52.134;5.578;2023-02-27T08:44:45;1.10;99.90
23721;DHT22;42950;52.134;5.578;2023-02-27T08:47:10;1.20;99.90
23721;DHT22;42950;52.134;5.578;2023-02-27T08:49:36;1.30;99.90
23721;DHT22;42950;52.134;5.578;2023-02-27T08:52:02;1.40;99.90
23721;DHT22;42950;52.134;5.578;2023-02-27T08:54:30;1.60;99.90
23721;DHT22;42950;52.134;5.578;2023-02-27T08:56:55;1.70;99.90
23721;DHT22;42950;52.134;5.578;2023-02-27T08:59:21;1.80;99.90
23721;DHT22;42950;52.134;5.578;2023-02-27T09:01:46;2.00;99.90
23721;DHT22;42950;52.134;5.578;2023-02-27T09:04:12;2.10;99.90
23721;DHT22;42950;52.134;5.578;2023-02-27T09:06:37;2.20;99.90
23721;DHT22;42950;52.134;5.578;2023-02-27T09:09:04;2.30;99.90
23721;DHT22;42950;52.134;5.578;2023-02-27T09:11:29;2.40;99.90
23721;DHT22;42950;52.134;5.578;2023-02-27T09:13:55;2.60;99.90
23721;DHT22;42950;52.134;5.578;2023-02-27T09:16:22;2.70;99.90
23721;DHT22;42950;52.134;5.578;2023-02-27T09:18:48;2.80;99.90
23721;DHT22;42950;52.134;5.578;2023-02-27T09:21:14;3.00;99.90
23721;DHT22;42950;52.134;5.578;2023-02-27T09:23:40;3.10;99.90
23721;DHT22;42950;52.134;5.578;2023-02-27T09:26:05;3.20;99.90
23721;DHT22;42950;52.134;5.578;2023-02-27T09:28:33;3.40;99.90
23721;DHT22;42950;52.134;5.578;2023-02-27T09:31:03;3.50;99.90
23721;DHT22;42950;52.134;5.578;2023-02-27T09:33:30;3.70;99.90
23721;DHT22;42950;52.134;5.578;2023-02-27T09:35:56;3.90;99.90
23721;DHT22;42950;52.134;5.578;2023-02-27T09:38:22;4.00;99.90
23721;DHT22;42950;52.134;5.578;2023-02-27T09:40:49;4.20;99.90
23721;DHT22;42950;52.134;5.578;2023-02-27T09:43:20;4.20;99.90
23721;DHT22;42950;52.134;5.578;2023-02-27T09:45:52;4.40;99.90
23721;DHT22;42950;52.134;5.578;2023-02-27T09:48:44;4.50;99.90
23721;DHT22;42950;52.134;5.578;2023-02-27T09:51:14;4.50;99.90
23721;DHT22;42950;52.134;5.578;2023-02-27T09:53:46;4.60;99.90
23721;DHT22;42950;52.134;5.578;2023-02-27T09:56:19;4.70;99.90
23721;DHT22;42950;52.134;5.578;2023-02-27T10:02:01;5.00;99.90
23721;DHT22;42950;52.134;5.578;2023-02-27T10:07:27;5.40;99.90
23721;DHT22;42950;52.134;5.578;2023-02-27T10:10:07;5.50;99.90
23721;DHT22;42950;52.134;5.578;2023-02-27T10:12:53;5.60;99.90
23721;DHT22;42950;52.134;5.578;2023-02-27T10:15:28;5.70;99.90
23721;DHT22;42950;52.134;5.578;2023-02-27T10:17:59;5.90;99.90
23721;DHT22;42950;52.134;5.578;2023-02-27T10:20:29;6.00;99.90
23721;DHT22;42950;52.134;5.578;2023-02-27T10:22:59;6.20;99.90
23721;DHT22;42950;52.134;5.578;2023-02-27T10:25:26;6.20;99.90
23721;DHT22;42950;52.134;5.578;2023-02-27T10:27:55;6.10;99.90
23721;DHT22;42950;52.134;5.578;2023-02-27T10:30:25;6.10;99.90
23721;DHT22;42950;52.134;5.578;2023-02-27T10:32:55;6.10;99.90
23721;DHT22;42950;52.134;5.578;2023-02-27T10:35:31;6.10;99.90
23721;DHT22;42950;52.134;5.578;2023-02-27T10:38:11;6.30;99.90
23721;DHT22;42950;52.134;5.578;2023-02-27T10:40:39;6.30;99.90
23721;DHT22;42950;52.134;5.578;2023-02-27T10:43:05;6.30;99.90
23721;DHT22;42950;52.134;5.578;2023-02-27T10:45:32;6.30;99.90
23721;DHT22;42950;52.134;5.578;2023-02-27T10:47:57;6.20;99.90
23721;DHT22;42950;52.134;5.578;2023-02-27T10:50:31;6.20;99.90
23721;DHT22;42950;52.134;5.578;2023-02-27T10:53:00;6.20;99.90
23721;DHT22;42950;52.134;5.578;2023-02-27T10:55:31;6.20;99.90
23721;DHT22;42950;52.134;5.578;2023-02-27T10:57:58;6.40;99.90
23721;DHT22;42950;52.134;5.578;2023-02-27T11:00:33;6.40;99.90
23721;DHT22;42950;52.134;5.578;2023-02-27T11:03:02;6.50;99.90
23721;DHT22;42950;52.134;5.578;2023-02-27T11:05:34;6.60;99.90
23721;DHT22;42950;52.134;5.578;2023-02-27T11:08:21;6.70;99.90
23721;DHT22;42950;52.134;5.578;2023-02-27T11:11:02;6.90;99.90
23721;DHT22;42950;52.134;5.578;2023-02-27T11:13:54;6.90;99.90
23721;DHT22;42950;52.134;5.578;2023-02-27T11:16:49;7.20;99.90
23721;DHT22;42950;52.134;5.578;2023-02-27T11:19:36;6.90;99.90
23721;DHT22;42950;52.134;5.578;2023-02-27T11:22:04;6.80;99.90
23721;DHT22;42950;52.134;5.578;2023-02-27T11:24:30;7.00;99.90
23721;DHT22;42950;52.134;5.578;2023-02-27T11:27:01;7.30;99.90
23721;DHT22;42950;52.134;5.578;2023-02-27T11:29:32;7.40;99.90
23721;DHT22;42950;52.134;5.578;2023-02-27T11:32:11;7.60;99.90
23721;DHT22;42950;52.134;5.578;2023-02-27T11:34:45;7.80;99.90
23721;DHT22;42950;52.134;5.578;2023-02-27T11:37:31;7.90;99.90
23721;DHT22;42950;52.134;5.578;2023-02-27T11:42:53;7.60;99.90
23721;DHT22;42950;52.134;5.578;2023-02-27T11:47:50;7.70;99.90
23721;DHT22;42950;52.134;5.578;2023-02-27T11:56:12;8.10;99.90
23721;DHT22;42950;52.134;5.578;2023-02-27T11:58:44;7.90;99.90
23721;DHT22;42950;52.134;5.578;2023-02-27T12:01:21;7.80;99.90
23721;DHT22;42950;52.134;5.578;2023-02-27T12:04:16;7.60;99.90
23721;DHT22;42950;52.134;5.578;2023-02-27T12:06:50;7.60;99.90
23721;DHT22;42950;52.134;5.578;2023-02-27T12:12:06;8.00;99.90
23721;DHT22;42950;52.134;5.578;2023-02-27T12:14:44;8.00;99.90
23721;DHT22;42950;52.134;5.578;2023-02-27T12:17:17;8.10;99.90
23721;DHT22;42950;52.134;5.578;2023-02-27T12:22:41;8.20;99.90
23721;DHT22;42950;52.134;5.578;2023-02-27T12:25:25;8.10;99.90
23721;DHT22;42950;52.134;5.578;2023-02-27T12:28:05;8.10;99.90
23721;DHT22;42950;52.134;5.578;2023-02-27T12:30:38;8.20;99.90
23721;DHT22;42950;52.134;5.578;2023-02-27T12:33:20;8.30;99.90
23721;DHT22;42950;52.134;5.578;2023-02-27T12:35:54;8.40;99.90
23721;DHT22;42950;52.134;5.578;2023-02-27T12:38:22;8.30;99.90
23721;DHT22;42950;52.134;5.578;2023-02-27T12:52:28;9.00;99.90
23721;DHT22;42950;52.134;5.578;2023-02-27T12:55:16;8.90;99.90
23721;DHT22;42950;52.134;5.578;2023-02-27T13:00:15;8.60;99.90
23721;DHT22;42950;52.134;5.578;2023-02-27T13:05:57;7.80;99.90
23721;DHT22;42950;52.134;5.578;2023-02-27T13:09:10;7.70;99.90
23721;DHT22;42950;52.134;5.578;2023-02-27T13:11:48;7.90;99.90
23721;DHT22;42950;52.134;5.578;2023-02-27T13:14:28;8.00;99.90
23721;DHT22;42950;52.134;5.578;2023-02-27T13:25:23;8.00;99.90
23721;DHT22;42950;52.134;5.578;2023-02-27T13:28:01;8.10;99.90
23721;DHT22;42950;52.134;5.578;2023-02-27T13:30:39;8.20;99.90
23721;DHT22;42950;52.134;5.578;2023-02-27T13:33:31;8.00;99.90
23721;DHT22;42950;52.134;5.578;2023-02-27T13:36:30;8.10;99.90
23721;DHT22;42950;52.134;5.578;2023-02-27T13:38:57;8.30;99.90
23721;DHT22;42950;52.134;5.578;2023-02-27T13:43:55;8.40;99.90
23721;DHT22;42950;52.134;5.578;2023-02-27T13:46:29;8.50;99.90
23721;DHT22;42950;52.134;5.578;2023-02-27T13:56:49;8.80;99.90
23721;DHT22;42950;52.134;5.578;2023-02-27T14:04:22;8.90;99.90
23721;DHT22;42950;52.134;5.578;2023-02-27T14:09:36;8.70;99.90
23721;DHT22;42950;52.134;5.578;2023-02-27T14:12:05;8.50;99.90
23721;DHT22;42950;52.134;5.578;2023-02-27T14:14:36;8.20;99.90
23721;DHT22;42950;52.134;5.578;2023-02-27T14:17:02;7.80;99.90
23721;DHT22;42950;52.134;5.578;2023-02-27T14:24:54;8.10;99.90
23721;DHT22;42950;52.134;5.578;2023-02-27T14:27:24;8.30;99.90
23721;DHT22;42950;52.134;5.578;2023-02-27T14:29:52;8.40;99.90
23721;DHT22;42950;52.134;5.578;2023-02-27T14:32:22;8.50;99.90
23721;DHT22;42950;52.134;5.578;2023-02-27T14:34:48;8.50;99.90
23721;DHT22;42950;52.134;5.578;2023-02-27T14:37:17;8.70;99.90
23721;DHT22;42950;52.134;5.578;2023-02-27T14:39:47;8.90;99.90
23721;DHT22;42950;52.134;5.578;2023-02-27T14:44:58;8.50;99.90
23721;DHT22;42950;52.134;5.578;2023-02-27T14:47:28;8.10;99.90
23721;DHT22;42950;52.134;5.578;2023-02-27T14:49:55;8.00;99.90
23721;DHT22;42950;52.134;5.578;2023-02-27T14:52:28;8.00;99.90
23721;DHT22;42950;52.134;5.578;2023-02-27T14:55:16;7.90;99.90
23721;DHT22;42950;52.134;5.578;2023-02-27T14:57:53;7.80;99.90
23721;DHT22;42950;52.134;5.578;2023-02-27T15:02:54;7.70;99.90
23721;DHT22;42950;52.134;5.578;2023-02-27T15:05:24;7.80;99.90
23721;DHT22;42950;52.134;5.578;2023-02-27T15:07:53;8.00;99.90
23721;DHT22;42950;52.134;5.578;2023-02-27T15:10:26;8.10;99.90
23721;DHT22;42950;52.134;5.578;2023-02-27T15:12:56;8.30;99.90
23721;DHT22;42950;52.134;5.578;2023-02-27T15:15:22;8.40;99.90
23721;DHT22;42950;52.134;5.578;2023-02-27T15:17:52;8.50;99.90
23721;DHT22;42950;52.134;5.578;2023-02-27T15:20:30;8.30;99.90
23721;DHT22;42950;52.134;5.578;2023-02-27T15:23:01;8.20;99.90
23721;DHT22;42950;52.134;5.578;2023-02-27T15:25:36;7.90;99.90
23721;DHT22;42950;52.134;5.578;2023-02-27T15:28:14;7.70;99.90
23721;DHT22;42950;52.134;5.578;2023-02-27T15:30:42;7.50;99.90
23721;DHT22;42950;52.134;5.578;2023-02-27T15:33:13;7.50;99.90
23721;DHT22;42950;52.134;5.578;2023-02-27T15:35:42;7.50;99.90
23721;DHT22;42950;52.134;5.578;2023-02-27T15:38:29;7.50;99.90
23721;DHT22;42950;52.134;5.578;2023-02-27T15:40:56;7.60;99.90
23721;DHT22;42950;52.134;5.578;2023-02-27T15:43:22;7.80;99.90
23721;DHT22;42950;52.134;5.578;2023-02-27T15:45:49;7.90;99.90
23721;DHT22;42950;52.134;5.578;2023-02-27T15:48:16;8.00;99.90
23721;DHT22;42950;52.134;5.578;2023-02-27T15:50:45;7.90;99.90
23721;DHT22;42950;52.134;5.578;2023-02-27T15:53:16;7.70;99.90
23721;DHT22;42950;52.134;5.578;2023-02-27T15:55:45;7.50;99.90
23721;DHT22;42950;52.134;5.578;2023-02-27T15:58:33;7.50;99.90
23721;DHT22;42950;52.134;5.578;2023-02-27T16:01:31;7.40;99.90
23721;DHT22;42950;52.134;5.578;2023-02-27T16:04:04;7.40;99.90
23721;DHT22;42950;52.134;5.578;2023-02-27T16:06:35;7.40;99.90
23721;DHT22;42950;52.134;5.578;2023-02-27T16:11:44;7.30;99.90
23721;DHT22;42950;52.134;5.578;2023-02-27T16:14:36;7.40;99.90
23721;DHT22;42950;52.134;5.578;2023-02-27T16:17:01;7.40;99.90
23721;DHT22;42950;52.134;5.578;2023-02-27T16:19:30;7.30;99.90
23721;DHT22;42950;52.134;5.578;2023-02-27T16:22:15;7.30;99.90
23721;DHT22;42950;52.134;5.578;2023-02-27T16:24:42;7.10;99.90
23721;DHT22;42950;52.134;5.578;2023-02-27T16:27:29;7.00;99.90
23721;DHT22;42950;52.134;5.578;2023-02-27T16:29:56;6.90;99.90
23721;DHT22;42950;52.134;5.578;2023-02-27T16:32:28;6.80;99.90
23721;DHT22;42950;52.134;5.578;2023-02-27T16:35:05;6.80;99.90
23721;DHT22;42950;52.134;5.578;2023-02-27T16:37:37;6.80;99.90
23721;DHT22;42950;52.134;5.578;2023-02-27T16:40:15;6.70;99.90
23721;DHT22;42950;52.134;5.578;2023-02-27T16:42:41;6.70;99.90
23721;DHT22;42950;52.134;5.578;2023-02-27T16:45:14;6.70;99.90
23721;DHT22;42950;52.134;5.578;2023-02-27T16:47:40;6.70;99.90
23721;DHT22;42950;52.134;5.578;2023-02-27T16:50:13;6.70;99.90
23721;DHT22;42950;52.134;5.578;2023-02-27T16:52:40;6.60;99.90
23721;DHT22;42950;52.134;5.578;2023-02-27T16:55:07;6.60;99.90
23721;DHT22;42950;52.134;5.578;2023-02-27T16:57:33;6.50;99.90
23721;DHT22;42950;52.134;5.578;2023-02-27T16:59:58;6.40;99.90
23721;DHT22;42950;52.134;5.578;2023-02-27T17:02:24;6.40;99.90
23721;DHT22;42950;52.134;5.578;2023-02-27T17:04:49;6.30;99.90
23721;DHT22;42950;52.134;5.578;2023-02-27T17:07:17;6.30;99.90
23721;DHT22;42950;52.134;5.578;2023-02-27T17:09:45;6.30;99.90
23721;DHT22;42950;52.134;5.578;2023-02-27T17:12:11;6.20;99.90
23721;DHT22;42950;52.134;5.578;2023-02-27T17:14:37;6.20;99.90
23721;DHT22;42950;52.134;5.578;2023-02-27T17:17:03;6.20;99.90
23721;DHT22;42950;52.134;5.578;2023-02-27T17:19:29;6.10;99.90
23721;DHT22;42950;52.134;5.578;2023-02-27T17:21:55;6.10;99.90
23721;DHT22;42950;52.134;5.578;2023-02-27T17:24:21;6.10;99.90
23721;DHT22;42950;52.134;5.578;2023-02-27T17:26:46;6.10;99.90
23721;DHT22;42950;52.134;5.578;2023-02-27T17:29:12;6.00;99.90
23721;DHT22;42950;52.134;5.578;2023-02-27T17:31:39;6.00;99.90
23721;DHT22;42950;52.134;5.578;2023-02-27T17:34:06;6.00;99.90
23721;DHT22;42950;52.134;5.578;2023-02-27T17:36:34;5.90;99.90
23721;DHT22;42950;52.134;5.578;2023-02-27T17:38:59;5.80;99.90
23721;DHT22;42950;52.134;5.578;2023-02-27T17:41:26;5.80;99.90
23721;DHT22;42950;52.134;5.578;2023-02-27T17:43:53;5.70;99.90
23721;DHT22;42950;52.134;5.578;2023-02-27T17:46:23;5.70;99.90
23721;DHT22;42950;52.134;5.578;2023-02-27T17:48:49;5.60;99.90
23721;DHT22;42950;52.134;5.578;2023-02-27T17:51:15;5.60;99.90
23721;DHT22;42950;52.134;5.578;2023-02-27T17:53:42;5.60;99.90
23721;DHT22;42950;52.134;5.578;2023-02-27T17:56:08;5.60;99.90
23721;DHT22;42950;52.134;5.578;2023-02-27T17:58:34;5.60;99.90
23721;DHT22;42950;52.134;5.578;2023-02-27T18:01:08;5.50;99.90
23721;DHT22;42950;52.134;5.578;2023-02-27T18:03:34;5.50;99.90
23721;DHT22;42950;52.134;5.578;2023-02-27T18:06:00;5.40;99.90